Time,TemperatureF,DewpointF,PressureIn,WindDirection,WindDirectionDegrees,WindSpeedMPH,WindSpeedGustMPH,Humidity,HourlyPrecipIn,Conditions,Clouds,dailyrainin,SoftwareType,DateUTC
2013-03-01 00:02:00,44.0,26.0,30.23,NW,324,0.0,0.0,48,0.00,,,0.00,,2013-03-01 06:02:00,
2013-03-01 00:11:00,43.0,25.0,30.23,NW,324,0.0,0.0,49,0.00,,,0.00,,2013-03-01 06:11:00,
2013-03-01 00:21:00,43.0,25.0,30.23,NW,324,0.0,0.0,49,0.00,,,0.00,,2013-03-01 06:21:00,
2013-03-01 00:32:00,43.0,26.0,30.23,NW,324,0.0,0.0,50,0.00,,,0.00,,2013-03-01 06:32:00,
2013-03-01 00:42:00,43.0,26.0,30.23,NW,324,0.0,0.0,50,0.00,,,0.00,,2013-03-01 06:42:00,
2013-03-01 00:52:00,43.0,26.0,30.23,NW,324,0.0,0.0,50,0.00,,,0.00,,2013-03-01 06:52:00,
2013-03-01 01:01:00,42.0,25.0,30.23,NW,324,1.0,3.0,51,0.00,,,0.00,,2013-03-01 07:01:00,
2013-03-01 01:11:00,42.0,25.0,30.23,NW,324,1.0,3.0,51,0.00,,,0.00,,2013-03-01 07:11:00,
2013-03-01 01:22:00,42.0,26.0,30.23,NW,324,0.0,0.0,52,0.00,,,0.00,,2013-03-01 07:22:00,
2013-03-01 01:32:00,41.0,25.0,30.23,NW,324,0.0,0.0,53,0.00,,,0.00,,2013-03-01 07:32:00,
2013-03-01 01:42:00,41.0,25.0,30.23,NW,324,0.0,0.0,53,0.00,,,0.00,,2013-03-01 07:42:00,
2013-03-01 01:52:00,41.0,26.0,30.23,NW,324,0.0,0.0,55,0.00,,,0.00,,2013-03-01 07:52:00,
2013-03-01 02:01:00,40.0,26.0,30.23,NW,324,0.0,0.0,56,0.00,,,0.00,,2013-03-01 08:01:00,
2013-03-01 02:11:00,40.0,26.0,30.23,NW,324,0.0,0.0,56,0.00,,,0.00,,2013-03-01 08:11:00,
2013-03-01 02:22:00,40.0,26.0,30.22,NW,324,0.0,0.0,56,0.00,,,0.00,,2013-03-01 08:22:00,
2013-03-01 02:32:00,39.0,25.0,30.22,NW,324,0.0,0.0,58,0.00,,,0.00,,2013-03-01 08:32:00,
2013-03-01 02:42:00,39.0,25.0,30.22,NW,324,0.0,0.0,58,0.00,,,0.00,,2013-03-01 08:42:00,
2013-03-01 02:53:00,38.0,26.0,30.22,NW,324,0.0,0.0,61,0.00,,,0.00,,2013-03-01 08:53:00,
2013-03-01 03:02:00,38.0,26.0,30.22,NW,324,0.0,0.0,61,0.00,,,0.00,,2013-03-01 09:02:00,
2013-03-01 03:12:00,38.0,26.0,30.22,NW,324,0.0,0.0,61,0.00,,,0.00,,2013-03-01 09:12:00,
2013-03-01 03:22:00,38.0,26.0,30.22,NW,324,1.0,3.0,61,0.00,,,0.00,,2013-03-01 09:22:00,
2013-03-01 03:32:00,37.0,26.0,30.23,NW,324,0.0,2.0,65,0.00,,,0.00,,2013-03-01 09:32:00,
2013-03-01 03:42:00,37.0,26.0,30.23,NW,324,0.0,2.0,65,0.00,,,0.00,,2013-03-01 09:42:00,
2013-03-01 03:52:00,37.0,26.0,30.22,NW,324,0.0,0.0,65,0.00,,,0.00,,2013-03-01 09:52:00,
2013-03-01 04:02:00,36.0,25.0,30.22,NW,324,0.0,0.0,65,0.00,,,0.00,,2013-03-01 10:02:00,
2013-03-01 04:11:00,35.0,25.0,30.22,NW,324,0.0,0.0,67,0.00,,,0.00,,2013-03-01 10:11:00,
2013-03-01 04:22:00,35.0,25.0,30.22,NW,324,0.0,0.0,67,0.00,,,0.00,,2013-03-01 10:22:00,
2013-03-01 04:32:00,35.0,26.0,30.22,NW,324,0.0,0.0,69,0.00,,,0.00,,2013-03-01 10:32:00,
2013-03-01 04:42:00,35.0,26.0,30.22,NW,324,0.0,0.0,69,0.00,,,0.00,,2013-03-01 10:42:00,
2013-03-01 04:52:00,34.0,25.0,30.22,NW,324,0.0,0.0,70,0.00,,,0.00,,2013-03-01 10:52:00,
2013-03-01 05:01:00,34.0,26.0,30.23,NW,324,0.0,0.0,71,0.00,,,0.00,,2013-03-01 11:01:00,
2013-03-01 05:11:00,34.0,26.0,30.23,NW,324,0.0,0.0,71,0.00,,,0.00,,2013-03-01 11:11:00,
2013-03-01 05:22:00,35.0,26.0,30.23,NW,324,0.0,0.0,70,0.00,,,0.00,,2013-03-01 11:22:00,
2013-03-01 05:32:00,35.0,26.0,30.23,NW,324,0.0,0.0,70,0.00,,,0.00,,2013-03-01 11:32:00,
2013-03-01 05:42:00,35.0,26.0,30.23,NW,324,0.0,0.0,70,0.00,,,0.00,,2013-03-01 11:42:00,
2013-03-01 05:52:00,36.0,27.0,30.24,NW,324,0.0,0.0,69,0.00,,,0.00,,2013-03-01 11:52:00,
2013-03-01 06:01:00,35.0,26.0,30.24,NW,324,0.0,0.0,69,0.00,,,0.00,,2013-03-01 12:01:00,
2013-03-01 06:11:00,35.0,26.0,30.24,NW,324,0.0,0.0,69,0.00,,,0.00,,2013-03-01 12:11:00,
2013-03-01 06:21:00,35.0,26.0,30.24,NW,324,0.0,1.0,68,0.00,,,0.00,,2013-03-01 12:21:00,
2013-03-01 06:32:00,35.0,26.0,30.24,NW,324,1.0,3.0,68,0.00,,,0.00,,2013-03-01 12:32:00,
2013-03-01 06:42:00,35.0,26.0,30.24,NW,324,1.0,3.0,68,0.00,,,0.00,,2013-03-01 12:42:00,
2013-03-01 06:52:00,35.0,26.0,30.24,NW,324,0.0,1.0,68,0.00,,,0.00,,2013-03-01 12:52:00,
2013-03-01 07:01:00,35.0,26.0,30.25,NW,324,0.0,0.0,68,0.00,,,0.00,,2013-03-01 13:01:00,
2013-03-01 07:11:00,35.0,26.0,30.25,NW,324,0.0,0.0,69,0.00,,,0.00,,2013-03-01 13:11:00,
2013-03-01 07:21:00,35.0,26.0,30.25,NW,324,0.0,0.0,69,0.00,,,0.00,,2013-03-01 13:21:00,
2013-03-01 07:32:00,35.0,26.0,30.25,NW,324,0.0,0.0,70,0.00,,,0.00,,2013-03-01 13:32:00,
2013-03-01 07:41:00,35.0,26.0,30.25,NW,324,0.0,0.0,70,0.00,,,0.00,,2013-03-01 13:41:00,
2013-03-01 07:52:00,35.0,27.0,30.25,NW,324,0.0,0.0,71,0.00,,,0.00,,2013-03-01 13:52:00,
2013-03-01 08:01:00,35.0,27.0,30.27,NW,324,0.0,0.0,71,0.00,,,0.00,,2013-03-01 14:01:00,
2013-03-01 08:11:00,35.0,27.0,30.27,NW,324,0.0,0.0,71,0.00,,,0.00,,2013-03-01 14:11:00,
2013-03-01 08:21:00,36.0,27.0,30.27,NW,324,0.0,1.0,70,0.00,,,0.00,,2013-03-01 14:21:00,
2013-03-01 08:32:00,38.0,29.0,30.28,NW,325,3.0,6.0,69,0.00,,,0.00,,2013-03-01 14:32:00,
2013-03-01 08:41:00,38.0,29.0,30.28,NW,325,3.0,6.0,69,0.00,,,0.00,,2013-03-01 14:41:00,
2013-03-01 08:52:00,38.0,28.0,30.29,NW,325,2.0,6.0,68,0.00,,,0.00,,2013-03-01 14:52:00,
2013-03-01 09:01:00,39.0,29.0,30.29,NW,325,4.0,7.0,67,0.00,,,0.00,,2013-03-01 15:01:00,
2013-03-01 09:11:00,40.0,30.0,30.29,NW,325,2.0,3.0,67,0.00,,,0.00,,2013-03-01 15:11:00,
2013-03-01 09:21:00,40.0,30.0,30.29,NW,325,2.0,3.0,67,0.00,,,0.00,,2013-03-01 15:21:00,
2013-03-01 09:31:00,40.0,29.0,30.30,NW,325,1.0,5.0,65,0.00,,,0.00,,2013-03-01 15:31:00,
2013-03-01 09:42:00,40.0,29.0,30.30,NW,325,1.0,5.0,65,0.00,,,0.00,,2013-03-01 15:42:00,
2013-03-01 09:52:00,41.0,30.0,30.30,NW,324,2.0,6.0,64,0.00,,,0.00,,2013-03-01 15:52:00,
2013-03-01 10:01:00,42.0,30.0,30.31,NW,324,2.0,6.0,62,0.00,,,0.00,,2013-03-01 16:01:00,
2013-03-01 10:11:00,42.0,30.0,30.31,NW,324,2.0,6.0,62,0.00,,,0.00,,2013-03-01 16:11:00,
2013-03-01 10:21:00,43.0,30.0,30.30,NW,311,4.0,7.0,61,0.00,,,0.00,,2013-03-01 16:21:00,
2013-03-01 10:32:00,43.0,30.0,30.30,WNW,292,5.0,9.0,59,0.00,,,0.00,,2013-03-01 16:32:00,
2013-03-01 10:41:00,43.0,30.0,30.30,WNW,292,5.0,9.0,59,0.00,,,0.00,,2013-03-01 16:41:00,
2013-03-01 10:52:00,44.0,30.0,30.30,West,279,4.0,8.0,58,0.00,,,0.00,,2013-03-01 16:52:00,
2013-03-01 11:01:00,46.0,31.0,30.29,WNW,294,3.0,7.0,55,0.00,,,0.00,,2013-03-01 17:01:00,
2013-03-01 11:11:00,47.0,30.0,30.29,NW,317,3.0,9.0,51,0.00,,,0.00,,2013-03-01 17:11:00,
2013-03-01 11:21:00,47.0,30.0,30.29,NW,317,3.0,9.0,51,0.00,,,0.00,,2013-03-01 17:21:00,
2013-03-01 11:31:00,47.0,29.0,30.28,NNW,333,3.0,8.0,50,0.00,,,0.00,,2013-03-01 17:31:00,
2013-03-01 11:41:00,47.0,29.0,30.28,NNW,333,3.0,8.0,50,0.00,,,0.00,,2013-03-01 17:41:00,
2013-03-01 11:52:00,47.0,29.0,30.28,NNW,333,3.0,8.0,50,0.00,,,0.00,,2013-03-01 17:52:00,
2013-03-01 12:01:00,49.0,31.0,30.28,WNW,282,9.0,14.0,49,0.00,,,0.00,,2013-03-01 18:01:00,
2013-03-01 12:12:00,49.0,31.0,30.28,WNW,282,9.0,14.0,49,0.00,,,0.00,,2013-03-01 18:12:00,
2013-03-01 12:22:00,49.0,30.0,30.26,WNW,290,1.0,5.0,47,0.00,,,0.00,,2013-03-01 18:22:00,
2013-03-01 12:32:00,50.0,30.0,30.25,West,277,2.0,5.0,46,0.00,,,0.00,,2013-03-01 18:32:00,
2013-03-01 12:41:00,51.0,30.0,30.25,NW,312,6.0,9.0,44,0.00,,,0.00,,2013-03-01 18:41:00,
2013-03-01 12:52:00,51.0,30.0,30.25,NW,312,6.0,9.0,44,0.00,,,0.00,,2013-03-01 18:52:00,
2013-03-01 13:01:00,51.0,30.0,30.24,North,3,4.0,9.0,44,0.00,,,0.00,,2013-03-01 19:01:00,
2013-03-01 13:11:00,51.0,30.0,30.24,North,3,4.0,9.0,44,0.00,,,0.00,,2013-03-01 19:11:00,
2013-03-01 13:21:00,51.0,30.0,30.24,North,4,4.0,10.0,44,0.00,,,0.00,,2013-03-01 19:21:00,
2013-03-01 13:31:00,51.0,30.0,30.23,WNW,302,5.0,8.0,44,0.00,,,0.00,,2013-03-01 19:31:00,
2013-03-01 13:42:00,51.0,30.0,30.23,WNW,302,5.0,8.0,44,0.00,,,0.00,,2013-03-01 19:42:00,
2013-03-01 13:52:00,51.0,30.0,30.22,NW,324,3.0,8.0,44,0.00,,,0.00,,2013-03-01 19:52:00,
2013-03-01 14:01:00,51.0,30.0,30.22,NNW,336,2.0,8.0,44,0.00,,,0.00,,2013-03-01 20:01:00,
2013-03-01 14:11:00,51.0,30.0,30.22,NNW,336,2.0,8.0,44,0.00,,,0.00,,2013-03-01 20:11:00,
2013-03-01 14:21:00,52.0,30.0,30.21,NE,34,1.0,7.0,43,0.00,,,0.00,,2013-03-01 20:21:00,
2013-03-01 14:31:00,52.0,30.0,30.20,NW,310,4.0,12.0,43,0.00,,,0.00,,2013-03-01 20:31:00,
2013-03-01 14:41:00,52.0,30.0,30.20,NW,310,4.0,12.0,43,0.00,,,0.00,,2013-03-01 20:41:00,
2013-03-01 14:52:00,53.0,31.0,30.20,NW,317,4.0,8.0,42,0.00,,,0.00,,2013-03-01 20:52:00,
2013-03-01 15:01:00,54.0,32.0,30.20,NW,307,5.0,8.0,43,0.00,,,0.00,,2013-03-01 21:01:00,
2013-03-01 15:11:00,54.0,32.0,30.19,WNW,293,7.0,12.0,43,0.00,,,0.00,,2013-03-01 21:11:00,
2013-03-01 15:21:00,54.0,32.0,30.19,WNW,293,7.0,12.0,43,0.00,,,0.00,,2013-03-01 21:21:00,
2013-03-01 15:31:00,55.0,31.0,30.19,NW,309,5.0,12.0,40,0.00,,,0.00,,2013-03-01 21:31:00,
2013-03-01 15:41:00,55.0,31.0,30.19,WNW,300,10.0,18.0,39,0.00,,,0.00,,2013-03-01 21:41:00,
2013-03-01 15:52:00,55.0,31.0,30.19,WNW,300,10.0,18.0,39,0.00,,,0.00,,2013-03-01 21:52:00,
2013-03-01 16:01:00,55.0,31.0,30.18,NW,317,5.0,12.0,39,0.00,,,0.00,,2013-03-01 22:01:00,
2013-03-01 16:11:00,56.0,31.0,30.17,WNW,302,8.0,15.0,38,0.00,,,0.00,,2013-03-01 22:11:00,
2013-03-01 16:21:00,56.0,31.0,30.17,WNW,302,8.0,15.0,38,0.00,,,0.00,,2013-03-01 22:21:00,
2013-03-01 16:31:00,56.0,31.0,30.17,NW,317,8.0,13.0,38,0.00,,,0.00,,2013-03-01 22:31:00,
2013-03-01 16:41:00,56.0,31.0,30.17,NW,317,8.0,13.0,38,0.00,,,0.00,,2013-03-01 22:41:00,
2013-03-01 16:52:00,55.0,31.0,30.18,NW,304,5.0,10.0,39,0.00,,,0.00,,2013-03-01 22:52:00,
2013-03-01 17:01:00,55.0,31.0,30.18,NNW,329,8.0,12.0,40,0.00,,,0.00,,2013-03-01 23:01:00,
2013-03-01 17:11:00,55.0,31.0,30.18,NNW,329,8.0,12.0,40,0.00,,,0.00,,2013-03-01 23:11:00,
2013-03-01 17:21:00,55.0,31.0,30.18,NW,313,3.0,10.0,40,0.00,,,0.00,,2013-03-01 23:21:00,
2013-03-01 17:31:00,54.0,31.0,30.19,North,349,7.0,16.0,41,0.00,,,0.00,,2013-03-01 23:31:00,
2013-03-01 17:41:00,54.0,31.0,30.19,North,349,7.0,16.0,41,0.00,,,0.00,,2013-03-01 23:41:00,
2013-03-01 17:52:00,54.0,32.0,30.19,North,9,4.0,12.0,43,0.00,,,0.00,,2013-03-01 23:52:00,
2013-03-01 18:01:00,53.0,32.0,30.19,North,10,5.0,10.0,44,0.00,,,0.00,,2013-03-02 00:01:00,
2013-03-01 18:11:00,53.0,32.0,30.19,North,10,5.0,10.0,44,0.00,,,0.00,,2013-03-02 00:11:00,
2013-03-01 18:21:00,52.0,31.0,30.20,North,350,6.0,10.0,44,0.00,,,0.00,,2013-03-02 00:21:00,
2013-03-01 18:31:00,52.0,31.0,30.21,NNW,339,5.0,12.0,45,0.00,,,0.00,,2013-03-02 00:31:00,
2013-03-01 18:42:00,51.0,30.0,30.21,NNW,331,7.0,12.0,45,0.00,,,0.00,,2013-03-02 00:42:00,
2013-03-01 18:52:00,51.0,30.0,30.21,NNW,331,7.0,12.0,45,0.00,,,0.00,,2013-03-02 00:52:00,
2013-03-01 19:01:00,51.0,31.0,30.22,NNW,341,7.0,12.0,46,0.00,,,0.00,,2013-03-02 01:01:00,
2013-03-01 19:11:00,51.0,32.0,30.23,NW,326,9.0,15.0,48,0.00,,,0.00,,2013-03-02 01:11:00,
2013-03-01 19:21:00,51.0,32.0,30.23,NW,326,9.0,15.0,48,0.00,,,0.00,,2013-03-02 01:21:00,
2013-03-01 19:31:00,49.0,33.0,30.24,NW,323,9.0,18.0,53,0.00,,,0.00,,2013-03-02 01:31:00,
2013-03-01 19:41:00,49.0,33.0,30.24,NW,323,9.0,18.0,53,0.00,,,0.00,,2013-03-02 01:41:00,
2013-03-01 19:52:00,49.0,34.0,30.25,NNW,344,7.0,13.0,55,0.00,,,0.00,,2013-03-02 01:52:00,
2013-03-01 20:01:00,48.0,33.0,30.25,NNW,334,10.0,14.0,55,0.00,,,0.00,,2013-03-02 02:01:00,
2013-03-01 20:11:00,48.0,33.0,30.25,NNW,334,10.0,14.0,55,0.00,,,0.00,,2013-03-02 02:11:00,
2013-03-01 20:21:00,48.0,32.0,30.25,NNW,336,7.0,14.0,54,0.00,,,0.00,,2013-03-02 02:21:00,
2013-03-01 20:32:00,47.0,31.0,30.26,NNW,329,8.0,12.0,54,0.00,,,0.00,,2013-03-02 02:32:00,
2013-03-01 20:41:00,47.0,31.0,30.26,NNW,329,8.0,12.0,54,0.00,,,0.00,,2013-03-02 02:41:00,
2013-03-01 20:52:00,47.0,31.0,30.26,NNW,340,8.0,14.0,54,0.00,,,0.00,,2013-03-02 02:52:00,
2013-03-01 21:01:00,46.0,31.0,30.26,NNW,329,8.0,12.0,55,0.00,,,0.00,,2013-03-02 03:01:00,
2013-03-01 21:11:00,46.0,31.0,30.26,NNW,329,6.0,9.0,56,0.00,,,0.00,,2013-03-02 03:11:00,
2013-03-01 21:21:00,46.0,31.0,30.26,NNW,329,6.0,9.0,56,0.00,,,0.00,,2013-03-02 03:21:00,
2013-03-01 21:32:00,46.0,32.0,30.27,NNW,327,7.0,12.0,57,0.00,,,0.00,,2013-03-02 03:32:00,
2013-03-01 21:41:00,46.0,32.0,30.27,NNW,327,7.0,12.0,57,0.00,,,0.00,,2013-03-02 03:41:00,
2013-03-01 21:52:00,46.0,32.0,30.27,NNW,328,6.0,10.0,58,0.00,,,0.00,,2013-03-02 03:52:00,
2013-03-01 22:01:00,45.0,32.0,30.27,NNW,337,7.0,12.0,59,0.00,,,0.00,,2013-03-02 04:01:00,
2013-03-01 22:11:00,45.0,32.0,30.28,NNW,327,9.0,13.0,59,0.00,,,0.00,,2013-03-02 04:11:00,
2013-03-01 22:21:00,45.0,32.0,30.28,NNW,327,9.0,13.0,59,0.00,,,0.00,,2013-03-02 04:21:00,
2013-03-01 22:32:00,44.0,31.0,30.28,NNW,333,7.0,12.0,59,0.00,,,0.00,,2013-03-02 04:32:00,
2013-03-01 22:42:00,44.0,31.0,30.28,NNW,333,7.0,12.0,59,0.00,,,0.00,,2013-03-02 04:42:00,
2013-03-01 22:52:00,44.0,31.0,30.29,NW,323,7.0,13.0,59,0.00,,,0.00,,2013-03-02 04:52:00,
2013-03-01 23:01:00,43.0,30.0,30.29,NNW,344,7.0,10.0,59,0.00,,,0.00,,2013-03-02 05:01:00,
2013-03-01 23:12:00,43.0,30.0,30.29,NNW,344,7.0,10.0,59,0.00,,,0.00,,2013-03-02 05:12:00,
2013-03-01 23:22:00,43.0,30.0,30.29,NNW,327,6.0,10.0,60,0.00,,,0.00,,2013-03-02 05:22:00,
2013-03-01 23:32:00,42.0,30.0,30.30,NW,323,6.0,12.0,62,0.00,,,0.00,,2013-03-02 05:32:00,
2013-03-01 23:41:00,42.0,30.0,30.30,NW,323,6.0,12.0,62,0.00,,,0.00,,2013-03-02 05:41:00,
2013-03-01 23:52:00,42.0,30.0,30.30,NNW,339,10.0,15.0,62,0.00,,,0.00,,2013-03-02 05:52:00,